createdAt,value
2019-02-02T00:01:05.383Z,52.70
2019-02-02T00:03:32.036Z,56.30
2019-02-02T00:05:59.387Z,56.87
2019-02-02T00:08:25.824Z,54.90
2019-02-02T00:10:52.459Z,53.57
2019-02-02T00:13:19.186Z,54.63
2019-02-02T00:15:47.561Z,54.53
2019-02-02T00:18:14.290Z,57.63
2019-02-02T00:20:40.923Z,55.70
2019-02-02T00:23:07.661Z,55.00
2019-02-02T00:25:34.096Z,57.00
2019-02-02T00:28:00.981Z,58.00
2019-02-02T00:30:27.843Z,55.67
2019-02-02T00:32:55.646Z,56.30
2019-02-02T00:35:21.805Z,54.60
2019-02-02T00:37:48.670Z,54.97
2019-02-02T00:40:18.052Z,55.67
2019-02-02T00:42:45.290Z,59.20
2019-02-02T00:45:14.883Z,57.33
2019-02-02T00:47:41.745Z,56.60
2019-02-02T00:50:11.077Z,56.17
2019-02-02T00:52:37.869Z,54.27
2019-02-02T00:55:16.073Z,54.77
2019-02-02T00:57:53.112Z,56.57
2019-02-02T01:00:15.178Z,57.40
2019-02-02T01:02:42.105Z,56.67
2019-02-02T01:05:36.448Z,59.30
2019-02-02T01:08:03.733Z,56.33
2019-02-02T01:10:33.080Z,57.03
2019-02-02T01:12:59.879Z,56.40
2019-02-02T01:15:27.318Z,57.50
2019-02-02T01:17:54.062Z,57.53
2019-02-02T01:20:21.264Z,57.50
2019-02-02T01:22:48.281Z,58.87
2019-02-02T01:25:15.724Z,57.10
2019-02-02T01:27:42.921Z,59.90
2019-02-02T01:30:12.585Z,58.67
2019-02-02T01:32:39.195Z,57.97
2019-02-02T01:35:08.261Z,58.43
2019-02-02T01:37:35.373Z,59.33
2019-02-02T01:40:02.028Z,58.63
2019-02-02T01:42:28.754Z,59.43
2019-02-02T01:44:55.322Z,56.67
2019-02-02T01:47:21.823Z,57.90
2019-02-02T01:49:48.574Z,60.00
2019-02-02T01:52:15.637Z,59.50
2019-02-02T01:54:42.457Z,61.10
2019-02-02T01:57:09.258Z,58.90
2019-02-02T01:59:36.207Z,59.00
2019-02-02T02:02:03.161Z,61.27
2019-02-02T02:04:29.643Z,63.50
2019-02-02T02:06:56.364Z,61.60
2019-02-02T02:09:23.373Z,59.93
2019-02-02T02:11:50.274Z,59.77
2019-02-02T02:14:17.233Z,61.20
2019-02-02T02:16:43.863Z,60.33
2019-02-02T02:19:10.396Z,61.87
2019-02-02T02:21:37.033Z,62.90
2019-02-02T02:24:03.903Z,63.60
2019-02-02T02:26:30.456Z,61.23
2019-02-02T02:28:57.678Z,61.30
2019-02-02T02:31:24.499Z,64.30
2019-02-02T02:33:50.990Z,60.13
2019-02-02T02:36:17.876Z,66.10
2019-02-02T02:38:44.681Z,62.10
2019-02-02T02:41:11.419Z,63.17
2019-02-02T02:43:37.919Z,61.97
2019-02-02T02:46:04.388Z,58.60
2019-02-02T02:48:30.961Z,61.73
2019-02-02T02:50:57.511Z,60.47
2019-02-02T02:53:24.638Z,59.20
2019-02-02T02:55:51.661Z,62.90
2019-02-02T02:58:18.131Z,58.53
2019-02-02T03:00:44.782Z,59.13
2019-02-02T03:03:11.779Z,59.67
2019-02-02T03:05:38.359Z,61.20
2019-02-02T03:08:05.623Z,62.47
2019-02-02T03:10:32.930Z,62.37
2019-02-02T03:12:59.523Z,65.10
2019-02-02T03:15:26.142Z,68.00
2019-02-02T03:17:53.288Z,63.43
2019-02-02T03:20:19.885Z,66.17
2019-02-02T03:22:46.905Z,66.03
2019-02-02T03:25:20.339Z,62.80
2019-02-02T03:27:47.045Z,65.23
2019-02-02T03:30:15.895Z,65.43
2019-02-02T03:32:42.354Z,67.27
2019-02-02T03:35:10.648Z,67.40
2019-02-02T03:37:37.348Z,69.00
2019-02-02T03:40:07.655Z,68.63
2019-02-02T03:42:34.218Z,71.93
2019-02-02T03:45:00.778Z,71.57
2019-02-02T03:47:27.317Z,70.87
2019-02-02T03:49:54.121Z,71.40
2019-02-02T03:52:20.723Z,74.10
2019-02-02T03:54:47.124Z,72.50
2019-02-02T03:57:13.829Z,73.63
2019-02-02T03:59:40.638Z,74.17
2019-02-02T04:02:07.367Z,66.07
2019-02-02T04:04:34.061Z,70.03
2019-02-02T04:07:00.552Z,74.50
2019-02-02T04:09:27.294Z,67.27
2019-02-02T04:11:54.001Z,74.70
2019-02-02T04:14:20.979Z,71.27
2019-02-02T04:16:47.558Z,73.47
2019-02-02T04:19:14.137Z,73.70
2019-02-02T04:21:40.728Z,70.57
2019-02-02T04:24:07.541Z,76.23
2019-02-02T04:26:34.005Z,77.50
2019-02-02T04:29:00.893Z,71.50
2019-02-02T04:31:27.587Z,76.57
2019-02-02T04:33:54.717Z,75.90
2019-02-02T04:36:21.686Z,77.90
2019-02-02T04:38:48.404Z,78.30
2019-02-02T04:41:15.086Z,75.87
2019-02-02T04:43:41.773Z,70.37
2019-02-02T04:46:08.450Z,74.10
2019-02-02T04:48:34.964Z,72.77
2019-02-02T04:51:01.767Z,73.83
2019-02-02T04:53:28.606Z,76.23
2019-02-02T04:55:55.325Z,76.87
2019-02-02T04:58:21.977Z,72.80
2019-02-02T05:00:48.682Z,80.77
2019-02-02T05:03:15.395Z,74.83
2019-02-02T05:05:42.492Z,74.00
2019-02-02T05:08:09.229Z,72.50
2019-02-02T05:10:36.222Z,75.57
2019-02-02T05:13:03.076Z,69.27
2019-02-02T05:15:30.117Z,71.13
2019-02-02T05:17:56.754Z,71.30
2019-02-02T05:20:23.662Z,71.53
2019-02-02T05:22:50.551Z,72.17
2019-02-02T05:25:17.624Z,72.20
2019-02-02T05:27:44.366Z,69.10
2019-02-02T05:30:22.954Z,69.10
2019-02-02T05:32:49.924Z,73.40
2019-02-02T05:35:16.557Z,71.70
2019-02-02T05:37:43.186Z,72.60
2019-02-02T05:40:13.329Z,75.57
2019-02-02T05:42:39.871Z,71.80
2019-02-02T05:45:09.301Z,69.50
2019-02-02T05:47:35.683Z,71.47
2019-02-02T05:50:03.011Z,73.03
2019-02-02T05:52:29.440Z,69.43
2019-02-02T05:54:56.591Z,70.33
2019-02-02T05:57:23.184Z,67.33
2019-02-02T05:59:52.867Z,70.37
2019-02-02T06:02:18.267Z,69.87
2019-02-02T06:04:45.343Z,69.23
2019-02-02T06:07:11.869Z,72.27
2019-02-02T06:09:38.413Z,66.33
2019-02-02T06:12:05.564Z,72.30
2019-02-02T06:14:31.995Z,69.87
2019-02-02T06:16:58.529Z,73.00
2019-02-02T06:19:25.038Z,68.63
2019-02-02T06:21:51.541Z,70.77
2019-02-02T06:24:17.909Z,70.37
2019-02-02T06:26:44.416Z,64.70
2019-02-02T06:29:10.914Z,65.63
2019-02-02T06:31:37.927Z,69.00
2019-02-02T06:34:04.458Z,66.40
2019-02-02T06:36:30.876Z,66.47
2019-02-02T06:38:57.441Z,64.97
2019-02-02T06:41:24.478Z,67.00
2019-02-02T06:43:50.795Z,68.77
2019-02-02T06:46:17.483Z,66.87
2019-02-02T06:48:43.886Z,66.37
2019-02-02T06:51:10.813Z,64.63
2019-02-02T06:53:37.182Z,63.60
2019-02-02T06:56:04.030Z,64.40
2019-02-02T06:58:31.006Z,65.40
2019-02-02T07:00:57.967Z,62.13
2019-02-02T07:03:24.544Z,65.37
2019-02-02T07:05:51.390Z,66.40
2019-02-02T07:08:17.834Z,63.53
2019-02-02T07:10:44.391Z,63.70
2019-02-02T07:13:10.955Z,62.27
2019-02-02T07:15:37.515Z,60.17
2019-02-02T07:21:15.986Z,62.57
2019-02-02T07:23:56.954Z,65.10
2019-02-02T07:26:26.889Z,63.73
2019-02-02T07:28:53.188Z,61.10
2019-02-02T07:31:19.767Z,61.53
2019-02-02T07:33:46.572Z,61.93
2019-02-02T07:36:13.090Z,64.80
2019-02-02T07:38:39.475Z,62.17
2019-02-02T07:41:08.146Z,64.17
2019-02-02T07:43:35.390Z,58.47
2019-02-02T07:46:01.867Z,58.70
2019-02-02T07:48:28.806Z,62.40
2019-02-02T07:50:55.339Z,58.37
2019-02-02T07:53:22.148Z,59.60
2019-02-02T07:55:48.973Z,61.63
2019-02-02T07:58:15.766Z,63.37
2019-02-02T08:00:42.662Z,59.40
2019-02-02T08:03:09.604Z,59.80
2019-02-02T08:05:36.441Z,60.17
2019-02-02T08:08:04.305Z,61.97
2019-02-02T08:10:30.709Z,61.47
2019-02-02T08:12:57.434Z,58.70
2019-02-02T08:15:32.384Z,57.80
2019-02-02T08:18:01.167Z,62.27
2019-02-02T08:20:28.802Z,59.50
2019-02-02T08:22:56.618Z,59.60
2019-02-02T08:25:23.424Z,59.40
2019-02-02T08:27:49.726Z,61.30
2019-02-02T08:30:21.113Z,63.30
2019-02-02T08:32:49.692Z,60.73
2019-02-02T08:35:16.413Z,58.20
2019-02-02T08:37:43.432Z,62.37
2019-02-02T08:40:16.681Z,56.77
2019-02-02T08:42:43.260Z,57.60
2019-02-02T08:45:14.352Z,58.80
2019-02-02T08:47:45.241Z,60.67
2019-02-02T08:50:18.443Z,55.43
2019-02-02T08:52:45.400Z,55.03
2019-02-02T08:55:12.219Z,54.83
2019-02-02T08:57:39.144Z,58.37
2019-02-02T09:00:12.374Z,57.63
2019-02-02T09:02:41.040Z,60.30
2019-02-02T09:05:10.717Z,58.60
2019-02-02T09:07:38.432Z,56.70
2019-02-02T09:10:15.332Z,57.63
2019-02-02T09:12:42.240Z,56.10
2019-02-02T09:15:11.868Z,56.50
2019-02-02T09:17:41.114Z,53.37
2019-02-02T09:20:11.653Z,62.20
2019-02-02T09:22:38.775Z,56.27
2019-02-02T09:28:30.819Z,53.07
2019-02-02T09:31:02.007Z,59.60
2019-02-02T09:33:28.604Z,57.30
2019-02-02T09:35:55.523Z,58.90
2019-02-02T09:38:22.150Z,56.67
2019-02-02T09:40:49.165Z,55.30
2019-02-02T09:43:22.923Z,53.63
2019-02-02T09:48:53.377Z,53.67
2019-02-02T09:51:19.948Z,56.40
2019-02-02T09:53:46.461Z,51.90
2019-02-02T09:56:12.734Z,56.17
2019-02-02T09:58:39.398Z,56.87
2019-02-02T10:01:05.898Z,54.33
2019-02-02T10:07:08.188Z,51.33
2019-02-02T10:09:34.798Z,51.77
2019-02-02T10:15:14.239Z,54.33
2019-02-02T10:17:40.770Z,55.13
2019-02-02T10:20:11.397Z,52.90
2019-02-02T10:22:38.191Z,52.47
2019-02-02T10:25:08.834Z,52.40
2019-02-02T10:31:10.871Z,54.57
2019-02-02T10:33:37.388Z,52.97
2019-02-02T10:36:03.869Z,52.03
2019-02-02T10:38:33.687Z,52.80
2019-02-02T10:41:00.341Z,50.77
2019-02-02T10:43:27.180Z,50.77
2019-02-02T10:45:54.119Z,53.10
2019-02-02T10:48:20.869Z,51.60
2019-02-02T10:50:47.490Z,52.80
2019-02-02T10:53:14.029Z,53.60
2019-02-02T10:55:40.339Z,49.70
2019-02-02T10:58:06.887Z,51.13
2019-02-02T11:04:09.188Z,47.40
2019-02-02T11:06:35.971Z,52.00
2019-02-02T11:09:06.600Z,49.47
2019-02-02T11:11:33.257Z,49.97
2019-02-02T11:13:59.757Z,51.57
2019-02-02T11:16:26.178Z,52.17
2019-02-02T11:18:52.725Z,53.03
2019-02-02T11:21:19.125Z,49.00
2019-02-02T11:23:45.898Z,52.77
2019-02-02T11:26:12.623Z,53.90
2019-02-02T11:28:39.005Z,52.53
2019-02-02T11:34:16.876Z,49.90
2019-02-02T11:40:10.359Z,50.23
2019-02-02T11:45:48.609Z,52.13
2019-02-02T11:48:15.325Z,49.73
2019-02-02T11:50:41.903Z,50.17
2019-02-02T11:53:08.697Z,46.60
2019-02-02T11:55:35.314Z,44.77
2019-02-02T11:58:01.904Z,44.13
2019-02-02T12:00:35.267Z,45.40
2019-02-02T12:03:41.459Z,41.60
2019-02-02T12:06:07.698Z,41.63
2019-02-02T12:08:33.899Z,41.23
2019-02-02T12:11:00.299Z,42.37
2019-02-02T12:17:01.300Z,42.77
2019-02-02T12:19:27.631Z,42.40
2019-02-02T12:25:18.612Z,39.90
2019-02-02T12:31:08.869Z,45.83
2019-02-02T12:36:59.524Z,39.17
2019-02-02T12:39:25.900Z,36.83
2019-02-02T12:41:52.167Z,37.43
2019-02-02T12:47:42.253Z,40.07
2019-02-02T12:50:11.161Z,42.70
2019-02-02T12:52:37.648Z,40.90
2019-02-02T12:55:07.254Z,40.70
2019-02-02T12:57:33.846Z,42.57
2019-02-02T13:00:00.881Z,37.17
2019-02-02T13:02:37.586Z,40.67
2019-02-02T13:04:55.272Z,38.70
2019-02-02T13:07:21.749Z,39.10
2019-02-02T13:09:48.116Z,35.70
2019-02-02T13:12:15.098Z,36.70
2019-02-02T13:14:42.322Z,35.63
2019-02-02T13:20:19.970Z,35.40
2019-02-02T13:22:46.812Z,37.23
2019-02-02T13:25:16.249Z,37.00
2019-02-02T13:31:06.639Z,35.83
2019-02-02T13:33:33.594Z,40.10
2019-02-02T13:36:00.239Z,38.27
2019-02-02T13:41:38.234Z,38.47
2019-02-02T13:44:04.858Z,33.80
2019-02-02T13:49:54.901Z,35.03
2019-02-02T13:52:21.190Z,33.93
2019-02-02T13:57:59.955Z,33.73
2019-02-02T14:03:52.580Z,32.37
2019-02-02T14:12:35.518Z,33.40
2019-02-02T14:18:38.090Z,32.90
2019-02-02T14:24:28.997Z,32.17
2019-02-02T14:26:55.623Z,30.77
2019-02-02T14:29:22.085Z,30.67
2019-02-02T14:31:48.745Z,29.60
2019-02-02T14:34:15.590Z,28.37
2019-02-02T14:36:42.307Z,29.70
2019-02-02T14:39:09.604Z,26.10
2019-02-02T14:41:36.610Z,27.33
2019-02-02T14:44:03.540Z,24.33
2019-02-02T14:46:30.492Z,22.40
2019-02-02T14:48:56.903Z,23.20
2019-02-02T14:54:46.820Z,18.30
2019-02-02T14:57:13.549Z,17.33
2019-02-02T14:59:40.109Z,17.93
2019-02-02T15:02:06.516Z,18.57
2019-02-02T15:04:32.664Z,18.53
2019-02-02T15:06:59.324Z,19.80
2019-02-02T15:09:26.256Z,19.33
2019-02-02T15:11:52.818Z,20.97
2019-02-02T15:14:19.399Z,18.00
2019-02-02T15:16:46.182Z,20.20
2019-02-02T15:19:12.705Z,18.23
2019-02-02T15:24:50.058Z,18.40
2019-02-02T15:27:16.659Z,16.80
2019-02-02T15:33:06.813Z,16.27
2019-02-02T15:35:33.570Z,18.07
2019-02-02T15:41:24.060Z,16.37
2019-02-02T15:43:50.761Z,14.67
2019-02-02T15:46:17.212Z,16.10
2019-02-02T15:48:44.080Z,14.60
2019-02-02T15:51:11.223Z,14.20
2019-02-02T15:57:01.936Z,13.77
2019-02-02T15:59:28.899Z,13.50
2019-02-02T16:01:55.301Z,14.80
2019-02-02T16:04:21.794Z,14.10
2019-02-02T16:10:23.853Z,15.40
2019-02-02T16:16:15.161Z,15.50
2019-02-02T16:21:52.808Z,15.00
2019-02-02T16:27:42.779Z,13.00
2019-02-02T16:30:12.686Z,12.47
2019-02-02T16:36:13.480Z,12.70
2019-02-02T16:38:39.665Z,13.90
2019-02-02T16:41:06.154Z,13.43
2019-02-02T16:46:56.360Z,12.47
2019-02-02T16:52:46.840Z,13.60
2019-02-02T16:58:37.694Z,12.17
2019-02-02T17:01:04.280Z,11.67
2019-02-02T17:03:30.742Z,11.30
2019-02-02T17:05:57.400Z,10.20
2019-02-02T17:08:24.204Z,11.13
2019-02-02T17:10:50.741Z,11.90
2019-02-02T17:13:17.367Z,10.90
2019-02-02T17:15:43.775Z,10.37
2019-02-02T17:18:10.142Z,9.87
2019-02-02T17:20:38.628Z,9.43
2019-02-02T17:23:05.328Z,9.70
2019-02-02T17:25:31.805Z,9.87
2019-02-02T17:27:58.098Z,9.63
2019-02-02T17:30:25.188Z,10.80
2019-02-02T17:32:54.506Z,11.20
2019-02-02T17:38:31.917Z,10.83
2019-02-02T17:40:58.193Z,10.37
2019-02-02T17:46:35.538Z,11.57
2019-02-02T17:49:02.240Z,10.00
2019-02-02T17:51:28.545Z,11.17
2019-02-02T17:53:55.042Z,10.90
2019-02-02T17:56:21.473Z,11.00
2019-02-02T17:58:47.756Z,10.10
2019-02-02T18:01:14.282Z,11.43
2019-02-02T18:03:40.858Z,12.20
2019-02-02T18:09:30.699Z,10.70
2019-02-02T18:15:14.015Z,10.70
2019-02-02T18:17:40.506Z,9.93
2019-02-02T18:23:30.403Z,9.63
2019-02-02T18:25:56.782Z,10.80
2019-02-02T18:28:23.255Z,9.87
2019-02-02T18:30:49.771Z,10.77
2019-02-02T18:33:16.531Z,9.53
2019-02-02T18:39:06.571Z,9.97
2019-02-02T18:41:32.893Z,11.57
2019-02-02T18:44:00.275Z,11.03
2019-02-02T18:46:26.708Z,11.00
2019-02-02T18:48:53.129Z,10.63
2019-02-02T18:54:20.483Z,10.97
2019-02-02T18:56:46.780Z,12.70
2019-02-02T18:59:13.170Z,11.93
2019-02-02T19:01:39.630Z,13.80
2019-02-02T19:04:06.274Z,12.00
2019-02-02T19:06:32.763Z,12.77
2019-02-02T19:08:59.279Z,13.00
2019-02-02T19:11:26.067Z,15.63
2019-02-02T19:13:52.743Z,14.87
2019-02-02T19:16:33.532Z,16.53
2019-02-02T19:19:00.230Z,16.43
2019-02-02T19:21:26.694Z,17.50
2019-02-02T19:23:53.330Z,15.90
2019-02-02T19:26:19.715Z,15.63
2019-02-02T19:28:46.082Z,15.57
2019-02-02T19:34:48.014Z,16.60
2019-02-02T19:37:14.509Z,15.77
2019-02-02T19:39:40.929Z,16.53
2019-02-02T19:42:07.204Z,16.73
2019-02-02T19:44:34.123Z,17.87
2019-02-02T19:47:00.590Z,17.40
2019-02-02T19:49:26.980Z,19.70
2019-02-02T19:55:14.396Z,21.63
2019-02-02T19:57:33.618Z,18.83
2019-02-02T20:00:02.703Z,21.33
2019-02-02T20:02:29.010Z,19.63
2019-02-02T20:04:56.053Z,23.80
2019-02-02T20:07:22.877Z,22.07
2019-02-02T20:09:49.473Z,22.33
2019-02-02T20:15:27.001Z,24.70
2019-02-02T20:17:53.498Z,24.43
2019-02-02T20:20:25.441Z,24.03
2019-02-02T20:22:52.575Z,25.47
2019-02-02T20:28:55.415Z,25.00
2019-02-02T20:31:22.090Z,27.03
2019-02-02T20:37:23.738Z,23.77
2019-02-02T20:39:50.177Z,25.47
2019-02-02T20:42:17.561Z,26.20
2019-02-02T20:44:44.072Z,24.50
2019-02-02T20:47:10.535Z,27.70
2019-02-02T20:49:37.602Z,26.33
2019-02-02T20:52:04.108Z,27.33
2019-02-02T20:54:30.521Z,26.80
2019-02-02T21:00:28.390Z,28.43
2019-02-02T21:02:54.977Z,28.13
2019-02-02T21:05:21.458Z,29.13
2019-02-02T21:07:48.100Z,28.00
2019-02-02T21:10:16.425Z,28.37
2019-02-02T21:12:42.794Z,25.43
2019-02-02T21:15:11.847Z,29.17
2019-02-02T21:17:38.382Z,28.50
2019-02-02T21:20:09.067Z,26.80
2019-02-02T21:22:35.511Z,28.23
2019-02-02T21:25:05.649Z,24.50
2019-02-02T21:30:56.003Z,26.90
2019-02-02T21:36:34.325Z,24.73
2019-02-02T21:39:00.944Z,25.93
2019-02-02T21:41:27.396Z,26.87
2019-02-02T21:43:53.793Z,25.73
2019-02-02T21:46:20.263Z,26.43
2019-02-02T21:48:46.704Z,27.80
2019-02-02T21:51:13.364Z,30.30
2019-02-02T21:53:39.703Z,28.17
2019-02-02T21:56:06.005Z,25.67
2019-02-02T22:01:59.569Z,26.60
2019-02-02T22:07:37.975Z,25.30
2019-02-02T22:13:05.613Z,27.37
2019-02-02T22:15:32.328Z,28.47
2019-02-02T22:21:34.891Z,25.40
2019-02-02T22:24:01.600Z,27.23
2019-02-02T22:26:28.254Z,28.03
2019-02-02T22:28:57.829Z,26.67
2019-02-02T22:34:46.634Z,29.17
2019-02-02T22:40:26.614Z,28.97
2019-02-02T22:46:16.982Z,27.67
2019-02-02T22:48:43.543Z,28.90
2019-02-02T22:51:09.880Z,28.33
2019-02-02T22:53:36.713Z,27.57
2019-02-02T22:56:03.382Z,30.20
2019-02-02T22:58:29.889Z,25.83
2019-02-02T23:01:04.691Z,30.27
2019-02-02T23:06:48.285Z,27.97
2019-02-02T23:09:21.756Z,29.00
2019-02-02T23:12:06.542Z,26.80
2019-02-02T23:14:52.272Z,24.40
2019-02-02T23:17:19.320Z,24.60
2019-02-02T23:19:46.119Z,27.37
2019-02-02T23:22:12.975Z,27.93
2019-02-02T23:24:39.626Z,26.60
2019-02-02T23:27:06.628Z,26.93
2019-02-02T23:29:33.621Z,26.77
2019-02-02T23:32:00.518Z,24.80
2019-02-02T23:34:26.886Z,26.20
2019-02-02T23:36:56.098Z,26.23
2019-02-02T23:39:21.602Z,27.70
2019-02-02T23:41:48.184Z,27.30
2019-02-02T23:44:14.544Z,25.77
2019-02-02T23:46:41.180Z,24.70
2019-02-02T23:49:07.619Z,26.33
2019-02-02T23:51:34.137Z,26.17
2019-02-02T23:54:00.598Z,27.30
2019-02-02T23:56:27.332Z,24.07
2019-02-02T23:58:53.645Z,25.90
